createdAt,value
2022-08-12T00:01:04.148Z,60.30
2022-08-12T00:03:51.825Z,60.10
2022-08-12T00:06:41.099Z,60.30
2022-08-12T00:09:27.238Z,60.40
2022-08-12T00:12:13.604Z,60.40
2022-08-12T00:15:01.388Z,60.60
2022-08-12T00:17:47.623Z,60.50
2022-08-12T00:20:33.421Z,60.60
2022-08-12T00:23:19.175Z,60.20
2022-08-12T00:26:23.794Z,60.30
2022-08-12T00:29:13.681Z,60.30
2022-08-12T00:32:01.277Z,60.30
2022-08-12T00:34:51.709Z,60.30
2022-08-12T00:37:42.673Z,60.40
2022-08-12T00:40:32.405Z,60.30
2022-08-12T00:43:00.310Z,60.40
2022-08-12T00:45:47.579Z,60.60
2022-08-12T00:48:15.882Z,60.50
2022-08-12T00:50:43.691Z,60.40
2022-08-12T00:53:12.765Z,60.40
2022-08-12T00:55:46.545Z,60.60
2022-08-12T00:58:18.367Z,60.70
2022-08-12T01:00:45.712Z,61.00
2022-08-12T01:03:18.665Z,60.70
2022-08-12T01:06:06.885Z,60.80
2022-08-12T01:08:52.613Z,60.80
2022-08-12T01:11:34.842Z,60.80
2022-08-12T01:14:03.417Z,61.00
2022-08-12T01:16:30.829Z,61.00
2022-08-12T01:18:58.940Z,61.30
2022-08-12T01:21:26.698Z,61.20
2022-08-12T01:24:32.375Z,61.10
2022-08-12T01:27:03.493Z,61.30
2022-08-12T01:29:42.322Z,61.30
2022-08-12T01:32:15.180Z,61.40
2022-08-12T01:34:51.389Z,61.50
2022-08-12T01:37:22.410Z,61.30
2022-08-12T01:40:33.683Z,61.30
2022-08-12T01:42:52.077Z,61.30
2022-08-12T01:45:24.750Z,61.10
2022-08-12T01:48:05.781Z,61.50
2022-08-12T01:50:55.109Z,61.50
2022-08-12T01:53:53.625Z,61.50
2022-08-12T01:56:24.592Z,61.70
2022-08-12T01:59:16.654Z,61.70
2022-08-12T02:01:47.802Z,61.50
2022-08-12T02:04:50.417Z,61.70
2022-08-12T02:08:09.634Z,61.70
2022-08-12T02:11:13.889Z,61.80
2022-08-12T02:14:02.357Z,61.70
2022-08-12T02:16:39.610Z,61.80
2022-08-12T02:19:38.951Z,61.90
2022-08-12T02:22:17.465Z,61.80
2022-08-12T02:24:46.738Z,61.90
2022-08-12T02:27:17.557Z,62.00
2022-08-12T02:29:44.932Z,62.00
2022-08-12T02:32:14.509Z,61.80
2022-08-12T02:34:44.676Z,62.10
2022-08-12T02:37:15.671Z,62.10
2022-08-12T02:39:48.814Z,62.10
2022-08-12T02:42:20.725Z,62.50
2022-08-12T02:44:52.377Z,62.00
2022-08-12T02:47:59.404Z,63.00
2022-08-12T02:50:11.397Z,62.20
2022-08-12T02:52:40.336Z,62.40
2022-08-12T02:55:28.927Z,62.20
2022-08-12T02:58:11.936Z,62.40
2022-08-12T03:00:40.731Z,62.30
2022-08-12T03:03:10.338Z,62.20
2022-08-12T03:05:45.473Z,62.60
2022-08-12T03:08:31.793Z,62.60
2022-08-12T03:11:18.780Z,62.60
2022-08-12T03:13:55.730Z,62.90
2022-08-12T03:16:23.976Z,62.80
2022-08-12T03:18:52.258Z,63.00
2022-08-12T03:21:53.103Z,62.80
2022-08-12T03:24:09.687Z,62.40
2022-08-12T03:26:37.756Z,62.50
2022-08-12T03:29:06.939Z,63.00
2022-08-12T03:31:34.847Z,63.00
2022-08-12T03:34:10.081Z,62.80
2022-08-12T03:36:39.647Z,63.20
2022-08-12T03:39:15.586Z,63.20
2022-08-12T03:41:57.959Z,62.90
2022-08-12T03:44:50.765Z,63.00
2022-08-12T03:47:51.503Z,63.20
2022-08-12T03:50:38.805Z,62.90
2022-08-12T03:53:29.133Z,62.80
2022-08-12T03:56:15.385Z,62.80
2022-08-12T03:59:01.223Z,62.80
2022-08-12T04:01:28.396Z,63.00
2022-08-12T04:04:02.200Z,62.70
2022-08-12T04:06:35.124Z,63.00
2022-08-12T04:09:14.675Z,62.90
2022-08-12T04:12:04.375Z,62.90
2022-08-12T04:14:33.091Z,63.10
2022-08-12T04:17:01.224Z,63.10
2022-08-12T04:19:28.887Z,63.50
2022-08-12T04:22:01.301Z,63.30
2022-08-12T04:24:35.497Z,63.40
2022-08-12T04:27:05.798Z,63.10
2022-08-12T04:30:30.890Z,63.20
2022-08-12T04:32:21.989Z,63.50
2022-08-12T04:34:52.603Z,63.20
2022-08-12T04:37:19.750Z,63.30
2022-08-12T04:39:47.409Z,63.50
2022-08-12T04:42:14.668Z,63.50
2022-08-12T04:44:42.521Z,63.80
2022-08-12T04:47:17.112Z,63.50
2022-08-12T04:49:46.769Z,63.50
2022-08-12T04:52:15.301Z,63.50
2022-08-12T04:54:44.036Z,63.70
2022-08-12T04:57:11.803Z,63.70
2022-08-12T04:59:47.829Z,63.80
2022-08-12T05:02:20.543Z,63.90
2022-08-12T05:04:51.265Z,64.00
2022-08-12T05:07:18.587Z,64.10
2022-08-12T05:09:59.023Z,64.00
2022-08-12T05:12:34.306Z,64.00
2022-08-12T05:15:02.170Z,64.70
2022-08-12T05:17:29.652Z,64.30
2022-08-12T05:19:58.005Z,64.20
2022-08-12T05:22:28.259Z,64.40
2022-08-12T05:24:55.416Z,64.70
2022-08-12T05:27:23.090Z,64.40
2022-08-12T05:30:07.199Z,65.00
2022-08-12T05:32:37.087Z,65.10
2022-08-12T05:35:08.589Z,65.30
2022-08-12T05:37:35.815Z,64.80
2022-08-12T05:40:10.685Z,65.80
2022-08-12T05:42:38.631Z,64.80
2022-08-12T05:45:07.005Z,64.50
2022-08-12T05:47:52.834Z,64.80
2022-08-12T05:50:21.236Z,65.00
2022-08-12T05:52:48.590Z,65.20
2022-08-12T05:55:15.854Z,65.20
2022-08-12T05:57:48.535Z,65.30
2022-08-12T06:00:17.525Z,65.30
2022-08-12T06:02:46.615Z,65.60
2022-08-12T06:05:14.115Z,65.60
2022-08-12T06:08:02.076Z,65.70
2022-08-12T06:10:32.056Z,66.20
2022-08-12T06:13:03.160Z,66.20
2022-08-12T06:15:31.366Z,66.20
2022-08-12T06:18:13.827Z,66.00
2022-08-12T06:20:47.704Z,66.70
2022-08-12T06:23:15.465Z,65.90
2022-08-12T06:25:43.751Z,65.90
2022-08-12T06:28:19.622Z,66.30
2022-08-12T06:31:02.608Z,66.20
2022-08-12T06:33:59.667Z,66.70
2022-08-12T06:36:30.010Z,66.90
2022-08-12T06:38:59.971Z,67.30
2022-08-12T06:42:30.604Z,67.10
2022-08-12T06:44:33.163Z,67.30
2022-08-12T06:47:00.637Z,67.50
2022-08-12T06:49:35.798Z,67.80
2022-08-12T06:52:04.589Z,68.00
2022-08-12T06:54:33.399Z,68.00
2022-08-12T06:57:57.908Z,68.00
2022-08-12T06:59:48.658Z,68.20
2022-08-12T07:02:15.803Z,68.20
2022-08-12T07:04:43.541Z,68.10
2022-08-12T07:07:11.072Z,68.00
2022-08-12T07:10:00.034Z,68.00
2022-08-12T07:12:27.980Z,68.00
2022-08-12T07:14:59.659Z,67.90
2022-08-12T07:17:36.392Z,67.80
2022-08-12T07:20:06.764Z,67.70
2022-08-12T07:22:34.156Z,67.70
2022-08-12T07:25:19.871Z,67.80
2022-08-12T07:27:47.012Z,67.70
2022-08-12T07:30:14.547Z,67.60
2022-08-12T07:32:41.799Z,67.60
2022-08-12T07:35:09.279Z,67.60
2022-08-12T07:37:42.186Z,67.40
2022-08-12T07:40:12.100Z,67.60
2022-08-12T07:42:41.947Z,67.50
2022-08-12T07:45:09.595Z,67.40
2022-08-12T07:47:38.119Z,67.30
2022-08-12T07:50:09.370Z,67.30
2022-08-12T07:52:43.058Z,67.30
2022-08-12T07:55:11.662Z,67.40
2022-08-12T07:57:54.297Z,67.40
2022-08-12T08:00:21.576Z,67.30
2022-08-12T08:02:49.447Z,67.20
2022-08-12T08:05:18.751Z,67.20
2022-08-12T08:07:45.826Z,67.10
2022-08-12T08:10:13.982Z,67.10
2022-08-12T08:12:58.740Z,66.90
2022-08-12T08:16:04.495Z,67.00
2022-08-12T08:18:26.550Z,67.00
2022-08-12T08:20:54.595Z,66.90
2022-08-12T08:23:21.821Z,66.70
2022-08-12T08:25:50.169Z,67.00
2022-08-12T08:28:17.784Z,66.90
2022-08-12T08:30:48.787Z,66.90
2022-08-12T08:33:23.593Z,67.10
2022-08-12T08:36:06.919Z,67.00
2022-08-12T08:38:58.417Z,67.10
2022-08-12T08:42:16.166Z,66.70
2022-08-12T08:44:38.314Z,66.50
2022-08-12T08:47:10.980Z,66.20
2022-08-12T08:49:39.564Z,66.20
2022-08-12T08:52:08.539Z,66.10
2022-08-12T08:54:37.846Z,66.10
2022-08-12T08:57:08.287Z,65.90
2022-08-12T08:59:35.540Z,65.60
2022-08-12T09:02:02.878Z,65.50
2022-08-12T09:05:11.235Z,65.50
2022-08-12T09:07:51.972Z,65.50
2022-08-12T09:10:09.288Z,65.60
2022-08-12T09:13:23.023Z,65.50
2022-08-12T09:21:26.251Z,64.80
2022-08-12T09:24:07.452Z,64.70
2022-08-12T09:26:38.351Z,64.80
2022-08-12T09:30:11.758Z,65.60
2022-08-12T09:32:56.426Z,64.80
2022-08-12T09:35:00.744Z,64.70
2022-08-12T09:37:28.419Z,64.80
2022-08-12T09:40:57.418Z,65.00
2022-08-12T09:43:24.965Z,64.80
2022-08-12T09:46:06.890Z,64.70
2022-08-12T09:48:44.858Z,64.50
2022-08-12T09:51:24.401Z,64.60
2022-08-12T09:54:31.189Z,64.70
2022-08-12T09:57:03.164Z,64.70
2022-08-12T10:00:14.016Z,64.60
2022-08-12T10:02:45.762Z,64.50
2022-08-12T10:05:09.281Z,64.60
2022-08-12T10:07:41.233Z,64.70
2022-08-12T10:10:22.955Z,64.80
2022-08-12T10:13:35.151Z,64.90
2022-08-12T10:16:05.297Z,64.80
2022-08-12T10:18:35.578Z,64.70
2022-08-12T10:21:10.817Z,64.40
2022-08-12T10:23:40.890Z,64.00
2022-08-12T10:26:37.447Z,63.70
2022-08-12T10:30:38.248Z,63.80
2022-08-12T10:32:44.373Z,63.90
2022-08-12T10:35:10.620Z,63.90
2022-08-12T10:38:34.337Z,63.90
2022-08-12T10:40:31.374Z,63.90
2022-08-12T10:43:19.029Z,63.80
2022-08-12T10:45:49.379Z,63.50
2022-08-12T10:48:33.637Z,63.10
2022-08-12T10:51:51.369Z,63.30
2022-08-12T10:54:00.809Z,63.10
2022-08-12T10:56:34.467Z,62.10
2022-08-12T10:59:06.286Z,61.10
2022-08-12T11:04:17.316Z,60.80
2022-08-12T11:04:39.548Z,60.90
2022-08-12T11:08:33.613Z,61.30
2022-08-12T11:10:02.621Z,60.70
2022-08-12T11:12:57.083Z,60.70
2022-08-12T11:15:33.220Z,60.50
2022-08-12T11:18:18.538Z,60.30
2022-08-12T11:20:48.136Z,60.70
2022-08-12T11:23:25.777Z,60.60
2022-08-12T11:26:06.183Z,60.80
2022-08-12T11:28:37.193Z,61.00
2022-08-12T11:31:12.134Z,60.30
2022-08-12T11:34:06.516Z,60.50
2022-08-12T11:36:30.699Z,60.70
2022-08-12T11:38:58.523Z,59.70
2022-08-12T11:41:32.880Z,59.90
2022-08-12T11:44:01.991Z,59.70
2022-08-12T11:46:51.409Z,59.90
2022-08-12T11:49:31.081Z,59.30
2022-08-12T11:52:03.667Z,59.10
2022-08-12T11:54:31.593Z,59.50
2022-08-12T11:57:02.269Z,59.30
2022-08-12T12:02:20.706Z,59.10
2022-08-12T12:04:52.534Z,59.30
2022-08-12T12:07:22.794Z,59.60
2022-08-12T12:10:11.618Z,59.00
2022-08-12T12:12:41.561Z,59.20
2022-08-12T12:15:25.089Z,59.40
2022-08-12T12:18:04.792Z,59.40
2022-08-12T12:20:32.049Z,59.40
2022-08-12T12:22:59.211Z,58.90
2022-08-12T12:26:06.628Z,59.20
2022-08-12T12:28:36.520Z,59.10
2022-08-12T12:31:04.082Z,58.40
2022-08-12T12:33:46.188Z,58.30
2022-08-12T12:36:24.049Z,58.20
2022-08-12T12:38:55.102Z,58.30
2022-08-12T12:41:22.265Z,58.50
2022-08-12T12:44:13.424Z,58.70
2022-08-12T12:46:54.774Z,58.80
2022-08-12T12:49:26.287Z,58.70
2022-08-12T12:52:19.607Z,59.00
2022-08-12T12:54:52.951Z,58.80
2022-08-12T12:57:35.907Z,58.50
2022-08-12T13:00:17.698Z,58.30
2022-08-12T13:02:53.619Z,58.40
2022-08-12T13:05:27.586Z,58.70
2022-08-12T13:08:00.635Z,58.90
2022-08-12T13:10:36.680Z,58.50
2022-08-12T13:14:07.383Z,58.10
2022-08-12T13:15:53.996Z,58.40
2022-08-12T13:18:28.872Z,58.10
2022-08-12T13:20:59.497Z,58.20
2022-08-12T13:23:36.355Z,58.40
2022-08-12T13:26:05.025Z,58.20
2022-08-12T13:28:32.342Z,58.00
2022-08-12T13:31:00.069Z,57.50
2022-08-12T13:33:28.847Z,57.70
2022-08-12T13:36:18.226Z,57.60
2022-08-12T13:38:54.354Z,57.70
2022-08-12T13:41:34.230Z,57.70
2022-08-12T13:44:04.586Z,58.00
2022-08-12T13:46:32.455Z,58.00
2022-08-12T13:48:59.664Z,57.60
2022-08-12T13:51:27.482Z,57.60
2022-08-12T13:54:13.864Z,57.20
2022-08-12T13:56:41.398Z,57.70
2022-08-12T13:59:20.560Z,57.70
2022-08-12T14:01:56.632Z,57.70
2022-08-12T14:04:24.214Z,57.30
2022-08-12T14:06:54.066Z,58.00
2022-08-12T14:09:21.202Z,57.20
2022-08-12T14:11:59.163Z,57.30
2022-08-12T14:14:31.663Z,57.40
2022-08-12T14:17:05.294Z,57.30
2022-08-12T14:19:36.073Z,57.10
2022-08-12T14:22:10.529Z,57.30
2022-08-12T14:24:41.133Z,57.50
2022-08-12T14:27:10.702Z,57.30
2022-08-12T14:30:04.098Z,57.20
2022-08-12T14:32:36.806Z,57.30
2022-08-12T14:35:06.813Z,57.20
2022-08-12T14:37:57.695Z,57.40
2022-08-12T14:40:30.284Z,56.40
2022-08-12T14:42:58.890Z,56.40
2022-08-12T14:45:45.292Z,56.70
2022-08-12T14:48:18.729Z,57.00
2022-08-12T14:51:09.519Z,56.30
2022-08-12T14:59:56.399Z,56.60
2022-08-12T15:02:20.594Z,56.70
2022-08-12T15:04:54.832Z,56.00
2022-08-12T15:07:33.523Z,56.80
2022-08-12T15:10:09.790Z,56.20
2022-08-12T15:12:40.644Z,56.70
2022-08-12T15:15:10.337Z,56.90
2022-08-12T15:17:38.797Z,56.20
2022-08-12T15:20:28.413Z,56.30
2022-08-12T15:22:58.116Z,56.90
2022-08-12T15:25:29.248Z,56.80
2022-08-12T15:28:10.902Z,56.60
2022-08-12T15:30:48.597Z,57.00
2022-08-12T15:33:20.927Z,56.70
2022-08-12T15:35:51.939Z,56.70
2022-08-12T15:38:24.711Z,56.90
2022-08-12T15:40:53.796Z,57.10
2022-08-12T15:43:35.447Z,57.50
2022-08-12T15:46:15.913Z,57.20
2022-08-12T15:48:47.146Z,56.70
2022-08-12T15:51:58.831Z,57.80
2022-08-12T15:54:34.115Z,56.50
2022-08-12T15:57:07.686Z,57.70
2022-08-12T16:00:00.093Z,57.90
2022-08-12T16:02:29.945Z,58.10
2022-08-12T16:04:57.971Z,57.40
2022-08-12T16:07:29.906Z,58.30
2022-08-12T16:10:07.058Z,58.20
2022-08-12T16:12:55.092Z,57.50
2022-08-12T16:15:29.322Z,57.70
2022-08-12T16:18:18.704Z,58.40
2022-08-12T16:20:46.651Z,57.70
2022-08-12T16:23:35.794Z,57.50
2022-08-12T16:26:15.099Z,57.90
2022-08-12T16:28:48.026Z,58.10
2022-08-12T16:31:23.147Z,58.60
2022-08-12T16:33:58.902Z,58.60
2022-08-12T16:36:29.463Z,58.40
2022-08-12T16:38:57.279Z,57.50
2022-08-12T16:41:25.718Z,57.70
2022-08-12T16:43:55.463Z,57.70
2022-08-12T16:46:32.282Z,58.10
2022-08-12T16:49:09.049Z,58.30
2022-08-12T16:51:46.801Z,52.40
2022-08-12T16:54:36.006Z,56.50
2022-08-12T16:57:05.585Z,57.60
2022-08-12T16:59:53.477Z,58.00
2022-08-12T17:02:31.382Z,57.90
2022-08-12T17:05:03.525Z,57.90
2022-08-12T17:07:36.972Z,58.20
2022-08-12T17:10:10.357Z,57.90
2022-08-12T17:12:39.649Z,58.00
2022-08-12T17:15:51.146Z,58.20
2022-08-12T17:18:15.199Z,58.30
2022-08-12T17:20:48.632Z,58.00
2022-08-12T17:23:17.844Z,58.60
2022-08-12T17:25:52.838Z,58.70
2022-08-12T17:28:23.529Z,58.50
2022-08-12T17:30:57.215Z,58.30
2022-08-12T17:33:27.782Z,58.30
2022-08-12T17:36:05.899Z,58.20
2022-08-12T17:38:36.085Z,58.50
2022-08-12T17:41:22.499Z,58.10
2022-08-12T17:43:58.307Z,59.00
2022-08-12T17:46:33.263Z,58.10
2022-08-12T17:49:00.851Z,58.00
2022-08-12T17:51:50.179Z,58.40
2022-08-12T17:54:18.152Z,58.60
2022-08-12T17:56:48.101Z,58.30
2022-08-12T17:59:47.368Z,58.70
2022-08-12T18:02:12.269Z,58.60
2022-08-12T18:05:05.001Z,58.80
2022-08-12T18:07:35.644Z,58.80
2022-08-12T18:10:05.108Z,58.60
2022-08-12T18:12:51.127Z,58.80
2022-08-12T18:15:26.498Z,58.90
2022-08-12T18:18:17.060Z,58.90
2022-08-12T18:20:47.085Z,58.80
2022-08-12T18:23:14.338Z,58.50
2022-08-12T18:26:14.138Z,58.60
2022-08-12T18:28:45.156Z,58.60
2022-08-12T18:31:43.854Z,58.60
2022-08-12T18:34:15.605Z,58.40
2022-08-12T18:36:51.671Z,58.20
2022-08-12T18:39:21.422Z,58.10
2022-08-12T18:41:49.828Z,57.90
2022-08-12T18:44:16.943Z,57.80
2022-08-12T18:46:53.946Z,57.70
2022-08-12T18:49:30.610Z,57.70
2022-08-12T18:52:04.697Z,57.50
2022-08-12T18:54:41.401Z,57.50
2022-08-12T18:57:46.101Z,57.50
2022-08-12T19:00:07.710Z,57.20
2022-08-12T19:02:39.771Z,56.90
2022-08-12T19:05:11.121Z,56.70
2022-08-12T19:08:00.635Z,56.50
2022-08-12T19:10:31.641Z,56.50
2022-08-12T19:13:21.252Z,56.40
2022-08-12T19:15:53.642Z,56.50
2022-08-12T19:18:22.442Z,56.50
2022-08-12T19:20:50.421Z,56.40
2022-08-12T19:23:20.993Z,56.40
2022-08-12T19:26:00.572Z,56.50
2022-08-12T19:28:35.482Z,56.60
2022-08-12T19:31:55.437Z,56.70
2022-08-12T19:37:27.188Z,56.70
2022-08-12T19:40:09.659Z,56.80
2022-08-12T19:42:53.292Z,56.60
2022-08-12T19:45:22.181Z,56.70
2022-08-12T19:47:49.512Z,56.70
2022-08-12T19:50:20.283Z,56.70
2022-08-12T19:52:53.427Z,56.70
2022-08-12T19:55:22.468Z,56.60
2022-08-12T19:58:01.673Z,56.60
2022-08-12T20:00:34.984Z,56.40
2022-08-12T20:03:04.720Z,56.50
2022-08-12T20:06:05.682Z,56.60
2022-08-12T20:08:34.007Z,56.80
2022-08-12T20:12:12.790Z,56.90
2022-08-12T20:14:00.999Z,56.80
2022-08-12T20:16:52.718Z,56.80
2022-08-12T20:19:52.981Z,56.80
2022-08-12T20:22:24.477Z,56.60
2022-08-12T20:25:01.632Z,56.90
2022-08-12T20:28:04.218Z,57.00
2022-08-12T20:30:20.818Z,57.00
2022-08-12T20:33:17.330Z,57.00
2022-08-12T20:36:06.900Z,57.10
2022-08-12T20:38:39.873Z,57.00
2022-08-12T20:41:17.587Z,56.90
2022-08-12T20:43:51.924Z,57.10
2022-08-12T20:46:20.864Z,57.20
2022-08-12T20:48:55.111Z,57.10
2022-08-12T20:51:27.706Z,57.20
2022-08-12T20:53:58.894Z,57.40
2022-08-12T20:56:34.635Z,57.50
2022-08-12T20:59:10.947Z,58.00
2022-08-12T21:01:47.565Z,57.60
2022-08-12T21:04:35.934Z,57.70
2022-08-12T21:07:09.767Z,57.80
2022-08-12T21:09:41.001Z,57.90
2022-08-12T21:12:28.089Z,57.80
2022-08-12T21:15:17.590Z,57.90
2022-08-12T21:18:08.949Z,58.10
2022-08-12T21:20:37.876Z,58.30
2022-08-12T21:23:06.469Z,58.40
2022-08-12T21:25:44.199Z,58.50
2022-08-12T21:28:13.705Z,58.60
2022-08-12T21:31:11.741Z,58.70
2022-08-12T21:33:32.220Z,58.80
2022-08-12T21:36:22.545Z,58.90
2022-08-12T21:38:51.305Z,58.90
2022-08-12T21:41:20.374Z,59.00
2022-08-12T21:43:50.503Z,58.80
2022-08-12T21:46:35.337Z,59.00
2022-08-12T21:49:05.249Z,59.20
2022-08-12T21:51:49.082Z,59.20
2022-08-12T21:54:23.666Z,59.40
2022-08-12T21:56:53.734Z,59.50
2022-08-12T21:59:21.939Z,59.50
2022-08-12T22:01:49.738Z,59.40
2022-08-12T22:04:36.713Z,59.70
2022-08-12T22:07:06.251Z,59.90
2022-08-12T22:09:43.009Z,59.80
2022-08-12T22:12:29.770Z,59.90
2022-08-12T22:14:56.989Z,60.00
2022-08-12T22:17:49.959Z,60.00
2022-08-12T22:20:21.644Z,60.10
2022-08-12T22:22:56.016Z,60.20
2022-08-12T22:25:27.943Z,60.30
2022-08-12T22:28:13.546Z,60.50
2022-08-12T22:30:59.849Z,60.40
2022-08-12T22:33:26.983Z,60.30
2022-08-12T22:35:59.731Z,60.50
2022-08-12T22:38:29.849Z,60.30
2022-08-12T22:41:03.021Z,60.90
2022-08-12T22:43:59.795Z,60.60
2022-08-12T22:46:34.860Z,60.80
2022-08-12T22:49:02.064Z,60.70
2022-08-12T22:51:43.006Z,61.00
2022-08-12T22:54:37.018Z,61.00
2022-08-12T22:57:12.495Z,61.10
2022-08-12T22:59:55.453Z,61.10
2022-08-12T23:02:28.816Z,61.20
2022-08-12T23:04:57.432Z,61.30
2022-08-12T23:07:24.639Z,61.50
2022-08-12T23:09:52.207Z,61.10
2022-08-12T23:12:46.556Z,61.60
2022-08-12T23:15:14.685Z,61.60
2022-08-12T23:17:42.918Z,61.60
2022-08-12T23:20:11.452Z,61.60
2022-08-12T23:22:40.186Z,61.70
2022-08-12T23:25:21.068Z,61.70
2022-08-12T23:28:29.332Z,61.70
2022-08-12T23:31:04.273Z,61.70
2022-08-12T23:34:01.818Z,61.80
2022-08-12T23:36:31.437Z,61.50
2022-08-12T23:40:13.977Z,61.80
2022-08-12T23:42:16.836Z,61.60
2022-08-12T23:44:45.718Z,61.90
2022-08-12T23:47:14.325Z,61.80
2022-08-12T23:49:58.485Z,61.70
2022-08-12T23:52:34.743Z,61.80
2022-08-12T23:55:23.351Z,61.60
2022-08-12T23:58:17.100Z,61.60
